createdAt,value
2019-05-26T00:02:26.389Z,14.20
2019-05-26T00:04:54.261Z,14.30
2019-05-26T00:07:30.675Z,14.20
2019-05-26T00:09:51.719Z,14.20
2019-05-26T00:12:20.800Z,14.20
2019-05-26T00:14:48.570Z,14.20
2019-05-26T00:17:16.295Z,14.20
2019-05-26T00:19:44.143Z,14.20
2019-05-26T00:22:11.811Z,14.10
2019-05-26T00:24:39.626Z,14.10
2019-05-26T00:27:07.390Z,14.10
2019-05-26T00:29:35.797Z,14.10
2019-05-26T00:32:03.602Z,14.10
2019-05-26T00:34:31.468Z,14.10
2019-05-26T00:36:59.254Z,14.10
2019-05-26T00:39:30.150Z,14.00
2019-05-26T00:41:57.882Z,13.90
2019-05-26T00:44:25.763Z,13.90
2019-05-26T00:46:53.482Z,13.90
2019-05-26T00:49:21.426Z,13.90
2019-05-26T00:51:49.115Z,13.80
2019-05-26T00:54:16.814Z,13.70
2019-05-26T00:56:44.730Z,13.60
2019-05-26T00:59:12.670Z,13.60
2019-05-26T01:01:40.522Z,13.70
2019-05-26T01:04:08.269Z,13.70
2019-05-26T01:06:36.055Z,13.70
2019-05-26T01:09:06.193Z,13.50
2019-05-26T01:11:34.263Z,13.60
2019-05-26T01:14:01.963Z,13.60
2019-05-26T01:16:30.523Z,13.60
2019-05-26T01:18:58.240Z,13.60
2019-05-26T01:21:26.015Z,13.60
2019-05-26T01:23:54.504Z,13.50
2019-05-26T01:26:41.714Z,13.40
2019-05-26T01:29:09.389Z,13.40
2019-05-26T01:31:37.835Z,13.40
2019-05-26T01:34:05.488Z,13.40
2019-05-26T01:36:33.560Z,13.40
2019-05-26T01:39:05.874Z,13.30
2019-05-26T01:41:47.742Z,13.20
2019-05-26T01:44:15.647Z,13.40
2019-05-26T01:46:43.490Z,13.30
2019-05-26T01:49:15.999Z,13.30
2019-05-26T01:51:45.353Z,13.30
2019-05-26T01:54:13.165Z,13.30
2019-05-26T01:56:41.034Z,13.20
2019-05-26T01:59:08.706Z,13.20
2019-05-26T02:01:48.564Z,13.20
2019-05-26T02:04:16.457Z,13.20
2019-05-26T02:06:53.594Z,13.10
2019-05-26T02:09:29.525Z,13.10
2019-05-26T02:11:58.950Z,13.10
2019-05-26T02:14:26.627Z,13.10
2019-05-26T02:16:54.313Z,13.10
2019-05-26T02:19:28.048Z,13.00
2019-05-26T02:21:55.815Z,13.00
2019-05-26T02:24:23.765Z,13.10
2019-05-26T02:26:51.546Z,13.10
2019-05-26T02:29:25.124Z,13.10
2019-05-26T02:31:52.796Z,13.00
2019-05-26T02:34:23.004Z,12.90
2019-05-26T02:36:50.724Z,12.90
2019-05-26T02:39:18.570Z,12.90
2019-05-26T02:41:46.243Z,12.90
2019-05-26T02:44:14.198Z,12.90
2019-05-26T02:46:42.092Z,12.80
2019-05-26T02:49:10.003Z,12.90
2019-05-26T02:51:39.737Z,12.90
2019-05-26T02:54:11.440Z,12.80
2019-05-26T02:56:39.230Z,12.80
2019-05-26T02:59:07.093Z,12.70
2019-05-26T03:01:35.650Z,12.70
2019-05-26T03:04:03.606Z,12.70
2019-05-26T03:06:32.638Z,12.70
2019-05-26T03:09:20.862Z,12.70
2019-05-26T03:11:33.528Z,12.60
2019-05-26T03:14:03.414Z,12.50
2019-05-26T03:16:35.973Z,12.60
2019-05-26T03:19:03.943Z,12.60
2019-05-26T03:21:33.831Z,12.60
2019-05-26T03:24:03.112Z,12.50
2019-05-26T03:26:31.255Z,12.50
2019-05-26T03:29:05.872Z,12.50
2019-05-26T03:31:35.579Z,12.50
2019-05-26T03:34:08.399Z,12.50
2019-05-26T03:36:36.188Z,12.50
2019-05-26T03:39:05.499Z,12.40
2019-05-26T03:42:02.695Z,12.40
2019-05-26T03:44:31.407Z,12.40
2019-05-26T03:46:59.169Z,12.40
2019-05-26T03:49:26.951Z,12.40
2019-05-26T03:51:58.453Z,12.30
2019-05-26T03:54:27.954Z,12.30
2019-05-26T03:57:04.457Z,12.30
2019-05-26T03:59:32.024Z,12.30
2019-05-26T04:01:59.952Z,12.30
2019-05-26T04:04:28.321Z,12.30
2019-05-26T04:06:56.137Z,12.40
2019-05-26T04:09:23.903Z,12.40
2019-05-26T04:11:51.766Z,12.40
2019-05-26T04:14:19.623Z,12.30
2019-05-26T04:16:47.357Z,12.40
2019-05-26T04:19:15.005Z,12.40
2019-05-26T04:21:42.749Z,12.40
2019-05-26T04:24:12.811Z,12.40
2019-05-26T04:26:40.475Z,12.30
2019-05-26T04:29:17.413Z,12.40
2019-05-26T04:31:45.258Z,12.40
2019-05-26T04:34:13.005Z,12.50
2019-05-26T04:36:40.857Z,12.50
2019-05-26T04:39:08.669Z,12.50
2019-05-26T04:41:36.558Z,12.60
2019-05-26T04:44:04.450Z,12.60
2019-05-26T04:46:38.937Z,12.60
2019-05-26T04:49:06.714Z,12.60
2019-05-26T04:51:34.502Z,12.80
2019-05-26T04:54:02.480Z,12.80
2019-05-26T04:56:30.459Z,12.80
2019-05-26T04:59:06.297Z,12.80
2019-05-26T05:01:34.266Z,12.90
2019-05-26T05:04:02.207Z,12.90
2019-05-26T05:06:30.016Z,12.90
2019-05-26T05:08:58.172Z,12.90
2019-05-26T05:11:38.281Z,12.90
2019-05-26T05:14:06.123Z,13.00
2019-05-26T05:16:36.836Z,13.00
2019-05-26T05:19:08.514Z,13.10
2019-05-26T05:21:48.031Z,13.10
2019-05-26T05:24:17.678Z,13.10
2019-05-26T05:26:46.021Z,13.20
2019-05-26T05:29:14.411Z,13.30
2019-05-26T05:31:42.698Z,13.30
2019-05-26T05:34:11.642Z,13.40
2019-05-26T05:37:02.487Z,13.50
2019-05-26T05:39:31.555Z,13.50
2019-05-26T05:42:00.757Z,13.60
2019-05-26T05:44:28.762Z,13.60
2019-05-26T05:46:59.425Z,13.70
2019-05-26T05:49:33.449Z,13.70
2019-05-26T05:52:02.115Z,13.80
2019-05-26T05:54:32.980Z,13.70
2019-05-26T05:57:06.807Z,13.70
2019-05-26T05:59:38.083Z,13.70
2019-05-26T06:02:35.102Z,13.80
2019-05-26T06:05:03.480Z,13.90
2019-05-26T06:07:32.494Z,13.90
2019-05-26T06:10:04.455Z,13.90
2019-05-26T06:12:39.370Z,14.00
2019-05-26T06:15:10.082Z,14.00
2019-05-26T06:17:38.236Z,14.20
2019-05-26T06:20:11.441Z,14.20
2019-05-26T06:22:39.918Z,14.30
2019-05-26T06:25:09.350Z,14.40
2019-05-26T06:27:37.471Z,14.40
2019-05-26T06:30:06.919Z,14.40
2019-05-26T06:32:35.781Z,14.60
2019-05-26T06:35:06.497Z,14.60
2019-05-26T06:37:38.813Z,14.60
2019-05-26T06:40:43.046Z,14.60
2019-05-26T06:43:14.993Z,14.70
2019-05-26T06:45:53.086Z,14.60
2019-05-26T06:48:37.355Z,14.60
2019-05-26T06:51:13.487Z,14.70
2019-05-26T06:53:51.516Z,14.70
2019-05-26T06:56:28.806Z,14.80
2019-05-26T06:59:02.949Z,14.90
2019-05-26T07:01:52.827Z,14.90
2019-05-26T07:07:50.233Z,15.10
2019-05-26T07:10:20.859Z,15.20
2019-05-26T07:13:08.581Z,15.30
2019-05-26T07:15:40.270Z,15.40
2019-05-26T07:18:15.340Z,15.40
2019-05-26T07:20:53.910Z,15.40
2019-05-26T07:29:54.772Z,15.50
2019-05-26T07:32:39.793Z,15.70
2019-05-26T07:35:25.246Z,15.90
2019-05-26T07:41:28.843Z,16.00
2019-05-26T07:44:29.684Z,16.20
2019-05-26T07:47:35.307Z,16.10
2019-05-26T07:54:46.169Z,16.00
2019-05-26T07:57:22.801Z,16.10
2019-05-26T07:59:50.812Z,16.20
2019-05-26T08:02:49.198Z,16.30
2019-05-26T08:05:59.141Z,16.40
2019-05-26T08:09:13.090Z,16.50
2019-05-26T08:12:03.268Z,16.50
2019-05-26T08:17:45.420Z,16.50
2019-05-26T08:20:37.056Z,16.60
2019-05-26T08:23:15.840Z,16.80
2019-05-26T08:26:27.904Z,17.00
2019-05-26T08:29:05.839Z,17.10
2019-05-26T08:31:48.502Z,17.20
2019-05-26T08:34:29.552Z,17.30
2019-05-26T08:37:39.139Z,17.20
2019-05-26T08:44:01.937Z,17.40
2019-05-26T08:47:05.628Z,17.60
2019-05-26T08:49:49.819Z,17.80
2019-05-26T08:52:44.665Z,18.00
2019-05-26T08:55:35.343Z,18.10
2019-05-26T08:58:29.241Z,18.20
2019-05-26T09:01:43.294Z,18.40
2019-05-26T09:04:48.713Z,18.40
2019-05-26T09:11:13.671Z,18.60
2019-05-26T09:14:11.189Z,18.70
2019-05-26T09:17:36.151Z,18.90
2019-05-26T09:23:41.081Z,19.30
2019-05-26T09:26:41.346Z,19.40
2019-05-26T09:29:21.384Z,19.30
2019-05-26T09:32:16.117Z,19.50
2019-05-26T09:38:56.639Z,19.80
2019-05-26T09:50:00.515Z,20.20
2019-05-26T09:53:05.611Z,20.40
2019-05-26T09:56:09.058Z,20.50
2019-05-26T09:59:41.271Z,20.60
2019-05-26T10:02:34.897Z,20.50
2019-05-26T10:05:36.731Z,20.40
2019-05-26T10:09:12.688Z,20.30
2019-05-26T10:12:08.270Z,20.50
2019-05-26T10:14:59.404Z,20.60
2019-05-26T10:18:26.579Z,20.80
2019-05-26T10:22:02.030Z,20.80
2019-05-26T10:24:43.747Z,20.80
2019-05-26T10:27:25.498Z,21.10
2019-05-26T10:30:01.193Z,21.20
2019-05-26T10:32:49.804Z,21.20
2019-05-26T10:36:03.011Z,21.10
2019-05-26T10:39:07.441Z,21.10
2019-05-26T10:41:51.744Z,20.80
2019-05-26T10:45:12.158Z,21.00
2019-05-26T10:48:08.503Z,21.00
2019-05-26T10:50:52.243Z,21.10
2019-05-26T10:53:44.097Z,20.90
2019-05-26T10:56:28.897Z,21.00
2019-05-26T10:59:18.041Z,21.10
2019-05-26T11:02:08.987Z,21.10
2019-05-26T11:08:27.273Z,21.00
2019-05-26T11:11:43.872Z,21.10
2019-05-26T11:14:44.118Z,21.20
2019-05-26T11:17:20.108Z,21.30
2019-05-26T11:20:35.299Z,21.50
2019-05-26T11:23:42.338Z,21.60
2019-05-26T11:26:36.204Z,21.70
2019-05-26T11:29:34.109Z,21.70
2019-05-26T11:35:47.052Z,21.70
2019-05-26T11:38:16.678Z,21.70
2019-05-26T11:41:18.243Z,21.80
2019-05-26T11:43:54.655Z,22.00
2019-05-26T11:46:32.431Z,22.00
2019-05-26T11:49:30.295Z,22.30
2019-05-26T11:59:36.039Z,22.90
2019-05-26T12:05:42.188Z,23.30
2019-05-26T12:08:14.343Z,23.60
2019-05-26T12:10:46.338Z,23.70
2019-05-26T12:13:18.973Z,23.90
2019-05-26T12:16:07.675Z,24.00
2019-05-26T12:18:43.941Z,24.00
2019-05-26T12:21:41.056Z,24.10
2019-05-26T12:24:22.043Z,24.10
2019-05-26T12:27:08.331Z,23.70
2019-05-26T12:29:38.320Z,23.60
2019-05-26T12:32:06.446Z,23.50
2019-05-26T12:35:14.833Z,23.40
2019-05-26T12:37:42.716Z,23.50
2019-05-26T12:40:17.869Z,23.60
2019-05-26T12:42:50.619Z,23.60
2019-05-26T12:45:20.897Z,23.80
2019-05-26T12:48:12.287Z,24.00
2019-05-26T12:50:55.911Z,23.80
2019-05-26T12:53:48.177Z,23.90
2019-05-26T12:56:19.781Z,23.90
2019-05-26T12:58:50.233Z,23.80
2019-05-26T13:01:37.575Z,23.90
2019-05-26T13:04:18.512Z,24.00
2019-05-26T13:06:48.413Z,24.00
2019-05-26T13:09:20.975Z,24.10
2019-05-26T13:11:53.813Z,24.30
2019-05-26T13:14:26.232Z,24.60
2019-05-26T13:17:01.711Z,24.50
2019-05-26T13:19:38.595Z,24.30
2019-05-26T13:22:08.814Z,24.30
2019-05-26T13:24:59.066Z,24.40
2019-05-26T13:27:31.375Z,24.50
2019-05-26T13:29:59.531Z,24.60
2019-05-26T13:32:35.953Z,24.80
2019-05-26T13:38:06.109Z,24.80
2019-05-26T13:40:33.973Z,25.00
2019-05-26T13:43:09.879Z,25.00
2019-05-26T13:46:01.730Z,24.90
2019-05-26T13:48:31.570Z,25.00
2019-05-26T13:51:18.884Z,25.30
2019-05-26T13:53:58.717Z,25.50
2019-05-26T13:57:12.206Z,25.50
2019-05-26T13:59:47.415Z,25.60
2019-05-26T14:02:26.974Z,25.70
2019-05-26T14:05:00.097Z,25.50
2019-05-26T14:07:29.447Z,25.60
2019-05-26T14:10:03.967Z,25.60
2019-05-26T14:12:37.928Z,25.60
2019-05-26T14:15:13.146Z,25.90
2019-05-26T14:17:42.437Z,26.00
2019-05-26T14:20:14.253Z,26.00
2019-05-26T14:22:43.605Z,26.10
2019-05-26T14:25:15.655Z,26.20
2019-05-26T14:27:43.103Z,26.10
2019-05-26T14:30:11.236Z,26.20
2019-05-26T14:32:39.253Z,25.90
2019-05-26T14:35:07.087Z,26.10
2019-05-26T14:37:35.282Z,26.10
2019-05-26T14:40:03.324Z,26.00
2019-05-26T14:42:32.673Z,26.00
2019-05-26T14:45:03.871Z,25.80
2019-05-26T14:47:31.851Z,25.90
2019-05-26T14:49:59.586Z,25.90
2019-05-26T14:52:27.401Z,25.80
2019-05-26T14:54:55.126Z,25.80
2019-05-26T14:57:22.906Z,25.70
2019-05-26T14:59:50.652Z,25.70
2019-05-26T15:02:18.606Z,25.70
2019-05-26T15:04:46.340Z,25.50
2019-05-26T15:07:14.238Z,25.60
2019-05-26T15:09:41.973Z,25.60
2019-05-26T15:12:09.855Z,25.80
2019-05-26T15:14:37.658Z,25.80
2019-05-26T15:17:05.375Z,26.10
2019-05-26T15:19:33.309Z,26.00
2019-05-26T15:22:01.085Z,26.10
2019-05-26T15:24:28.986Z,26.10
2019-05-26T15:26:56.764Z,26.10
2019-05-26T15:29:24.537Z,26.10
2019-05-26T15:31:52.248Z,26.00
2019-05-26T15:34:20.195Z,25.90
2019-05-26T15:36:47.976Z,25.90
2019-05-26T15:39:23.221Z,25.80
2019-05-26T15:41:54.041Z,25.70
2019-05-26T15:44:21.881Z,25.50
2019-05-26T15:46:49.757Z,25.50
2019-05-26T15:49:17.625Z,25.40
2019-05-26T15:51:45.341Z,25.50
2019-05-26T15:54:13.105Z,25.60
2019-05-26T15:56:40.962Z,25.60
2019-05-26T16:01:36.598Z,25.40
2019-05-26T16:04:04.567Z,25.30
2019-05-26T16:06:34.455Z,25.20
2019-05-26T16:09:02.474Z,25.20
2019-05-26T16:11:31.798Z,25.10
2019-05-26T16:13:59.540Z,25.10
2019-05-26T16:16:40.068Z,24.90
2019-05-26T16:18:57.093Z,24.50
2019-05-26T16:21:27.996Z,24.30
2019-05-26T16:23:54.549Z,24.30
2019-05-26T16:26:22.423Z,24.40
2019-05-26T16:28:50.322Z,24.40
2019-05-26T16:31:18.302Z,24.40
2019-05-26T16:33:46.009Z,24.60
2019-05-26T16:36:13.987Z,24.70
2019-05-26T16:38:44.797Z,24.80
2019-05-26T16:41:16.210Z,24.70
2019-05-26T16:43:50.390Z,24.70
2019-05-26T16:46:28.667Z,24.60
2019-05-26T16:49:00.729Z,24.40
2019-05-26T16:51:31.480Z,24.00
2019-05-26T16:54:06.148Z,23.90
2019-05-26T16:56:34.361Z,23.90
2019-05-26T16:59:08.974Z,24.10
2019-05-26T17:01:32.493Z,24.20
2019-05-26T17:04:00.305Z,24.10
2019-05-26T17:06:28.103Z,24.00
2019-05-26T17:08:55.785Z,23.80
2019-05-26T17:11:23.896Z,23.70
2019-05-26T17:13:51.598Z,23.70
2019-05-26T17:16:19.488Z,23.50
2019-05-26T17:18:47.547Z,23.50
2019-05-26T17:21:15.387Z,23.50
2019-05-26T17:23:43.019Z,23.30
2019-05-26T17:26:10.813Z,23.00
2019-05-26T17:28:38.562Z,22.70
2019-05-26T17:31:06.371Z,22.70
2019-05-26T17:33:34.161Z,22.60
2019-05-26T17:36:02.102Z,22.40
2019-05-26T17:38:29.928Z,22.30
2019-05-26T17:40:57.726Z,22.20
2019-05-26T17:43:25.513Z,22.10
2019-05-26T17:45:53.815Z,22.10
2019-05-26T17:48:23.475Z,22.10
2019-05-26T17:51:03.086Z,21.90
2019-05-26T17:53:31.109Z,22.00
2019-05-26T17:55:58.969Z,22.10
2019-05-26T17:58:26.992Z,22.20
2019-05-26T18:00:54.873Z,22.10
2019-05-26T18:03:25.535Z,22.10
2019-05-26T18:05:52.634Z,22.10
2019-05-26T18:08:22.769Z,22.00
2019-05-26T18:10:52.852Z,21.80
2019-05-26T18:13:20.863Z,21.80
2019-05-26T18:15:50.686Z,21.90
2019-05-26T18:18:18.565Z,22.00
2019-05-26T18:21:51.110Z,22.10
2019-05-26T18:24:25.749Z,22.20
2019-05-26T18:27:10.977Z,21.90
2019-05-26T18:29:41.886Z,21.80
2019-05-26T18:32:27.491Z,21.80
2019-05-26T18:34:52.638Z,21.80
2019-05-26T18:37:20.333Z,21.90
2019-05-26T18:39:48.290Z,21.90
2019-05-26T18:42:16.172Z,22.00
2019-05-26T18:44:44.048Z,21.90
2019-05-26T18:47:11.885Z,21.80
2019-05-26T18:49:39.749Z,21.70
2019-05-26T18:52:07.534Z,21.70
2019-05-26T18:54:35.580Z,21.70
2019-05-26T18:57:03.385Z,21.70
2019-05-26T18:59:31.486Z,21.60
2019-05-26T19:01:59.371Z,21.60
2019-05-26T19:04:27.316Z,21.60
2019-05-26T19:06:55.681Z,21.50
2019-05-26T19:09:23.729Z,21.50
2019-05-26T19:11:51.591Z,21.40
2019-05-26T19:14:19.477Z,21.20
2019-05-26T19:16:47.318Z,21.20
2019-05-26T19:19:15.329Z,21.10
2019-05-26T19:21:43.166Z,21.10
2019-05-26T19:24:10.912Z,21.00
2019-05-26T19:26:38.803Z,20.80
2019-05-26T19:29:06.752Z,20.70
2019-05-26T19:31:34.567Z,20.60
2019-05-26T19:34:02.405Z,20.50
2019-05-26T19:36:30.441Z,20.40
2019-05-26T19:38:58.299Z,20.30
2019-05-26T19:41:26.226Z,20.30
2019-05-26T19:43:54.246Z,20.10
2019-05-26T19:46:22.145Z,20.00
2019-05-26T19:48:49.975Z,19.90
2019-05-26T19:51:17.814Z,19.90
2019-05-26T19:53:45.630Z,19.80
2019-05-26T19:56:13.413Z,19.70
2019-05-26T19:58:41.127Z,19.80
2019-05-26T20:01:09.042Z,19.70
2019-05-26T20:03:36.881Z,19.70
2019-05-26T20:06:04.707Z,19.70
2019-05-26T20:08:32.681Z,19.60
2019-05-26T20:11:00.529Z,19.60
2019-05-26T20:13:28.553Z,19.50
2019-05-26T20:15:56.562Z,19.40
2019-05-26T20:18:24.472Z,19.40
2019-05-26T20:20:52.423Z,19.30
2019-05-26T20:23:20.471Z,19.20
2019-05-26T20:25:48.534Z,19.20
2019-05-26T20:28:16.386Z,19.00
2019-05-26T20:30:44.165Z,19.00
2019-05-26T20:33:12.088Z,19.00
2019-05-26T20:35:39.885Z,18.90
2019-05-26T20:38:10.885Z,18.80
2019-05-26T20:40:38.544Z,18.70
2019-05-26T20:43:06.441Z,18.60
2019-05-26T20:45:34.255Z,18.60
2019-05-26T20:48:02.252Z,18.60
2019-05-26T20:50:30.266Z,18.60
2019-05-26T20:52:58.614Z,18.60
2019-05-26T20:55:26.690Z,18.50
2019-05-26T20:57:54.571Z,18.50
2019-05-26T21:00:22.586Z,18.50
2019-05-26T21:02:50.595Z,18.50
2019-05-26T21:05:18.346Z,18.40
2019-05-26T21:07:46.150Z,18.40
2019-05-26T21:10:14.005Z,18.30
2019-05-26T21:12:44.219Z,18.20
2019-05-26T21:15:13.167Z,18.20
2019-05-26T21:17:41.179Z,18.20
2019-05-26T21:20:09.426Z,18.20
2019-05-26T21:22:38.147Z,18.10
2019-05-26T21:25:08.281Z,18.20
2019-05-26T21:27:36.489Z,18.20
2019-05-26T21:30:05.679Z,18.10
2019-05-26T21:32:34.273Z,18.20
2019-05-26T21:35:02.447Z,18.10
2019-05-26T21:37:31.662Z,18.10
2019-05-26T21:39:59.427Z,18.10
2019-05-26T21:42:27.584Z,18.10
2019-05-26T21:44:55.261Z,18.10
2019-05-26T21:47:24.322Z,18.20
2019-05-26T21:49:52.087Z,18.10
2019-05-26T21:52:19.918Z,17.90
2019-05-26T21:54:47.887Z,17.90
2019-05-26T21:57:15.709Z,17.80
2019-05-26T22:02:17.450Z,17.70
2019-05-26T22:04:46.142Z,17.70
2019-05-26T22:07:13.849Z,17.70
2019-05-26T22:09:41.698Z,17.60
2019-05-26T22:12:09.740Z,17.50
2019-05-26T22:14:37.743Z,17.40
2019-05-26T22:17:05.811Z,17.40
2019-05-26T22:19:45.994Z,17.30
2019-05-26T22:22:13.789Z,17.40
2019-05-26T22:24:41.500Z,17.40
2019-05-26T22:27:09.246Z,17.40
2019-05-26T22:29:39.905Z,17.30
2019-05-26T22:32:13.572Z,17.20
2019-05-26T22:34:41.425Z,17.20
2019-05-26T22:37:09.212Z,17.30
2019-05-26T22:39:36.893Z,17.20
2019-05-26T22:42:04.648Z,17.20
2019-05-26T22:44:32.426Z,17.10
2019-05-26T22:47:00.298Z,17.00
2019-05-26T22:49:28.119Z,17.10
2019-05-26T22:51:56.089Z,16.90
2019-05-26T22:54:23.753Z,16.90
2019-05-26T22:56:51.488Z,16.90
2019-05-26T22:59:19.178Z,16.90
2019-05-26T23:01:47.013Z,17.00
2019-05-26T23:04:14.558Z,17.00
2019-05-26T23:06:42.318Z,17.00
2019-05-26T23:09:10.170Z,17.00
2019-05-26T23:11:37.933Z,17.00
2019-05-26T23:14:05.684Z,17.00
2019-05-26T23:16:33.385Z,17.00
2019-05-26T23:19:01.306Z,17.00
2019-05-26T23:21:28.979Z,17.00
2019-05-26T23:23:56.758Z,17.00
2019-05-26T23:26:24.385Z,17.00
2019-05-26T23:28:52.134Z,17.00
2019-05-26T23:31:19.925Z,16.90
2019-05-26T23:33:47.788Z,16.80
2019-05-26T23:36:15.507Z,16.90
2019-05-26T23:38:43.260Z,16.90
2019-05-26T23:41:10.984Z,17.00
2019-05-26T23:43:38.932Z,17.00
2019-05-26T23:46:06.574Z,17.10
2019-05-26T23:48:34.225Z,17.20
2019-05-26T23:51:01.999Z,17.00
2019-05-26T23:53:29.831Z,17.10
2019-05-26T23:55:57.504Z,17.10
2019-05-26T23:58:25.249Z,17.00
